createdAt,value
2019-03-30T00:01:12.340Z,15.60
2019-03-30T00:03:36.784Z,13.97
2019-03-30T00:06:01.279Z,15.30
2019-03-30T00:08:25.870Z,18.93
2019-03-30T00:10:50.619Z,16.80
2019-03-30T00:13:15.052Z,15.83
2019-03-30T00:15:39.534Z,17.63
2019-03-30T00:18:04.031Z,15.23
2019-03-30T00:20:28.466Z,19.47
2019-03-30T00:22:52.899Z,17.57
2019-03-30T00:25:17.317Z,19.83
2019-03-30T00:27:41.763Z,19.43
2019-03-30T00:30:07.595Z,16.83
2019-03-30T00:32:32.049Z,18.63
2019-03-30T00:34:56.468Z,18.10
2019-03-30T00:37:20.912Z,18.53
2019-03-30T00:39:45.333Z,19.73
2019-03-30T00:42:09.738Z,21.10
2019-03-30T00:44:34.265Z,20.00
2019-03-30T00:46:58.698Z,20.87
2019-03-30T00:49:23.129Z,24.60
2019-03-30T00:51:47.665Z,23.33
2019-03-30T00:54:12.248Z,27.00
2019-03-30T00:56:36.682Z,25.23
2019-03-30T00:59:01.227Z,26.63
2019-03-30T01:01:25.813Z,27.10
2019-03-30T01:03:50.323Z,25.47
2019-03-30T01:06:15.000Z,25.50
2019-03-30T01:08:39.479Z,25.40
2019-03-30T01:11:04.173Z,26.30
2019-03-30T01:13:28.684Z,25.93
2019-03-30T01:15:58.273Z,23.80
2019-03-30T01:18:22.700Z,24.30
2019-03-30T01:20:47.333Z,24.57
2019-03-30T01:23:11.837Z,25.57
2019-03-30T01:25:36.258Z,26.67
2019-03-30T01:28:00.706Z,26.07
2019-03-30T01:30:25.170Z,28.63
2019-03-30T01:32:49.716Z,24.97
2019-03-30T01:35:14.309Z,30.27
2019-03-30T01:37:38.768Z,26.27
2019-03-30T01:40:03.689Z,29.33
2019-03-30T01:42:28.116Z,30.70
2019-03-30T01:44:52.573Z,27.50
2019-03-30T01:47:17.000Z,25.80
2019-03-30T01:49:41.513Z,27.80
2019-03-30T01:52:05.936Z,27.97
2019-03-30T01:54:30.467Z,25.33
2019-03-30T01:56:54.890Z,27.83
2019-03-30T01:59:19.337Z,27.07
2019-03-30T02:01:43.764Z,28.67
2019-03-30T02:04:08.297Z,28.77
2019-03-30T02:06:32.790Z,27.27
2019-03-30T02:08:57.305Z,27.63
2019-03-30T02:11:21.795Z,26.90
2019-03-30T02:13:46.233Z,27.83
2019-03-30T02:16:10.661Z,29.57
2019-03-30T02:18:35.254Z,27.53
2019-03-30T02:20:59.740Z,27.83
2019-03-30T02:23:24.259Z,26.87
2019-03-30T02:25:48.718Z,30.37
2019-03-30T02:28:13.273Z,27.73
2019-03-30T02:30:38.261Z,26.70
2019-03-30T02:33:02.756Z,27.57
2019-03-30T02:35:27.277Z,27.70
2019-03-30T02:37:51.780Z,29.43
2019-03-30T02:40:16.300Z,27.67
2019-03-30T02:42:40.707Z,28.60
2019-03-30T02:45:06.584Z,27.27
2019-03-30T02:47:31.085Z,28.93
2019-03-30T02:49:55.540Z,27.10
2019-03-30T02:52:19.968Z,30.13
2019-03-30T02:54:44.413Z,28.93
2019-03-30T02:57:08.906Z,26.40
2019-03-30T02:59:33.372Z,30.57
2019-03-30T03:01:57.967Z,26.13
2019-03-30T03:04:22.414Z,28.40
2019-03-30T03:06:46.839Z,26.47
2019-03-30T03:09:11.286Z,24.17
2019-03-30T03:11:35.698Z,25.77
2019-03-30T03:14:00.272Z,29.00
2019-03-30T03:16:27.317Z,25.10
2019-03-30T03:18:50.816Z,25.50
2019-03-30T03:21:15.223Z,28.70
2019-03-30T03:23:39.689Z,27.67
2019-03-30T03:26:04.169Z,26.23
2019-03-30T03:28:28.597Z,26.23
2019-03-30T03:30:53.100Z,25.57
2019-03-30T03:33:17.512Z,26.13
2019-03-30T03:35:41.954Z,24.73
2019-03-30T03:38:06.387Z,24.27
2019-03-30T03:40:30.841Z,23.10
2019-03-30T03:42:55.330Z,24.67
2019-03-30T03:45:19.778Z,27.40
2019-03-30T03:47:44.275Z,24.77
2019-03-30T03:50:10.913Z,23.30
2019-03-30T03:52:35.774Z,24.87
2019-03-30T03:55:00.603Z,23.97
2019-03-30T03:57:27.972Z,27.30
2019-03-30T03:59:53.556Z,24.77
2019-03-30T04:02:19.714Z,24.20
2019-03-30T04:04:47.614Z,27.13
2019-03-30T04:07:13.658Z,24.17
2019-03-30T04:09:40.282Z,26.97
2019-03-30T04:12:07.909Z,27.73
2019-03-30T04:14:35.143Z,25.20
2019-03-30T04:16:59.559Z,25.93
2019-03-30T04:19:23.988Z,28.70
2019-03-30T04:21:48.545Z,25.73
2019-03-30T04:24:12.979Z,25.13
2019-03-30T04:26:37.400Z,25.40
2019-03-30T04:29:01.826Z,25.73
2019-03-30T04:31:26.266Z,25.70
2019-03-30T04:33:50.689Z,26.67
2019-03-30T04:36:15.124Z,25.47
2019-03-30T04:38:39.550Z,26.30
2019-03-30T04:41:04.127Z,26.23
2019-03-30T04:43:28.530Z,27.23
2019-03-30T04:45:52.974Z,26.77
2019-03-30T04:48:17.391Z,27.00
2019-03-30T04:50:41.902Z,23.57
2019-03-30T04:53:06.319Z,23.40
2019-03-30T04:55:30.753Z,27.93
2019-03-30T04:57:57.723Z,24.93
2019-03-30T05:00:21.483Z,24.27
2019-03-30T05:02:45.912Z,23.90
2019-03-30T05:05:10.516Z,24.17
2019-03-30T05:07:34.932Z,25.23
2019-03-30T05:09:59.361Z,26.60
2019-03-30T05:12:23.781Z,24.10
2019-03-30T05:14:48.412Z,22.73
2019-03-30T05:17:12.817Z,25.07
2019-03-30T05:19:37.320Z,22.93
2019-03-30T05:22:12.016Z,22.40
2019-03-30T05:24:27.934Z,22.33
2019-03-30T05:26:52.384Z,23.40
2019-03-30T05:29:16.788Z,25.27
2019-03-30T05:31:41.298Z,21.23
2019-03-30T05:34:05.793Z,25.77
2019-03-30T05:36:30.272Z,21.07
2019-03-30T05:38:54.687Z,24.20
2019-03-30T05:41:19.128Z,24.13
2019-03-30T05:43:43.541Z,22.17
2019-03-30T05:46:08.030Z,24.27
2019-03-30T05:48:32.454Z,23.07
2019-03-30T05:50:56.898Z,22.63
2019-03-30T05:53:21.442Z,23.13
2019-03-30T05:55:45.887Z,20.30
2019-03-30T05:58:10.312Z,23.50
2019-03-30T06:00:34.738Z,24.17
2019-03-30T06:02:59.402Z,23.10
2019-03-30T06:05:23.844Z,22.43
2019-03-30T06:07:48.272Z,21.80
2019-03-30T06:10:13.567Z,22.30
2019-03-30T06:12:38.164Z,22.20
2019-03-30T06:15:02.590Z,22.40
2019-03-30T06:17:27.058Z,26.77
2019-03-30T06:19:51.478Z,20.40
2019-03-30T06:22:15.998Z,19.87
2019-03-30T06:24:40.418Z,20.23
2019-03-30T06:27:04.941Z,21.77
2019-03-30T06:29:29.376Z,22.53
2019-03-30T06:31:53.821Z,22.33
2019-03-30T06:34:18.443Z,23.37
2019-03-30T06:36:42.913Z,22.00
2019-03-30T06:39:07.402Z,21.63
2019-03-30T06:41:31.850Z,19.90
2019-03-30T06:43:56.493Z,18.43
2019-03-30T06:46:20.920Z,18.07
2019-03-30T06:48:45.339Z,20.43
2019-03-30T06:51:09.779Z,21.33
2019-03-30T06:53:34.837Z,20.20
2019-03-30T06:55:59.357Z,17.40
2019-03-30T06:58:23.782Z,18.77
2019-03-30T07:00:48.772Z,18.93
2019-03-30T07:03:13.367Z,17.30
2019-03-30T07:05:41.934Z,17.63
2019-03-30T07:08:09.480Z,19.47
2019-03-30T07:10:34.043Z,17.97
2019-03-30T07:13:01.176Z,19.47
2019-03-30T07:15:27.749Z,17.07
2019-03-30T07:17:54.065Z,16.13
2019-03-30T07:20:29.285Z,16.00
2019-03-30T07:22:53.963Z,17.00
2019-03-30T07:25:18.391Z,18.30
2019-03-30T07:27:42.832Z,13.67
2019-03-30T07:30:08.679Z,15.57
2019-03-30T07:32:33.200Z,16.40
2019-03-30T07:34:57.628Z,16.30
2019-03-30T07:37:22.150Z,15.80
2019-03-30T07:39:46.566Z,16.17
2019-03-30T07:42:11.114Z,15.00
2019-03-30T07:44:35.544Z,16.60
2019-03-30T07:46:59.986Z,18.70
2019-03-30T07:49:24.407Z,17.10
2019-03-30T07:51:48.851Z,16.50
2019-03-30T07:54:13.269Z,18.20
2019-03-30T07:56:37.710Z,19.17
2019-03-30T07:59:02.241Z,16.60
2019-03-30T08:01:26.704Z,17.73
2019-03-30T08:03:51.167Z,15.80
2019-03-30T08:06:15.595Z,16.30
2019-03-30T08:08:40.037Z,15.80
2019-03-30T08:11:04.439Z,18.47
2019-03-30T08:13:29.268Z,16.60
2019-03-30T08:15:53.689Z,15.13
2019-03-30T08:18:18.128Z,16.67
2019-03-30T08:20:42.536Z,16.77
2019-03-30T08:23:07.119Z,14.53
2019-03-30T08:25:31.531Z,16.17
2019-03-30T08:27:56.038Z,15.43
2019-03-30T08:30:20.514Z,15.13
2019-03-30T08:32:44.958Z,18.27
2019-03-30T08:35:09.508Z,14.50
2019-03-30T08:37:34.021Z,14.13
2019-03-30T08:39:58.439Z,16.17
2019-03-30T08:42:22.892Z,14.97
2019-03-30T08:44:47.318Z,16.13
2019-03-30T08:47:11.760Z,14.63
2019-03-30T08:49:36.198Z,17.47
2019-03-30T08:52:00.598Z,12.70
2019-03-30T08:54:25.121Z,12.53
2019-03-30T08:56:49.522Z,13.63
2019-03-30T08:59:13.956Z,14.50
2019-03-30T09:01:38.375Z,13.40
2019-03-30T09:04:02.865Z,14.27
2019-03-30T09:06:27.313Z,12.37
2019-03-30T09:08:51.821Z,16.57
2019-03-30T09:11:16.244Z,13.43
2019-03-30T09:13:40.828Z,14.20
2019-03-30T09:16:05.328Z,13.40
2019-03-30T09:18:29.835Z,13.87
2019-03-30T09:20:54.251Z,13.97
2019-03-30T09:23:18.697Z,14.00
2019-03-30T09:25:43.125Z,11.93
2019-03-30T09:28:07.638Z,12.37
2019-03-30T09:30:32.125Z,12.90
2019-03-30T09:32:56.566Z,12.50
2019-03-30T09:35:21.041Z,13.60
2019-03-30T09:37:45.466Z,14.27
2019-03-30T09:40:11.507Z,14.27
2019-03-30T09:42:36.154Z,13.93
2019-03-30T09:45:00.668Z,13.33
2019-03-30T09:47:25.088Z,14.67
2019-03-30T09:49:49.534Z,14.40
2019-03-30T09:52:13.952Z,14.90
2019-03-30T09:54:38.392Z,13.57
2019-03-30T09:57:02.808Z,13.33
2019-03-30T09:59:27.233Z,12.57
2019-03-30T10:01:51.650Z,12.70
2019-03-30T10:04:16.089Z,14.63
2019-03-30T10:06:40.507Z,13.23
2019-03-30T10:09:06.597Z,13.37
2019-03-30T10:11:31.003Z,12.37
2019-03-30T10:13:55.412Z,14.03
2019-03-30T10:16:19.847Z,12.90
2019-03-30T10:18:44.255Z,12.50
2019-03-30T10:21:08.699Z,12.30
2019-03-30T10:23:33.192Z,14.90
2019-03-30T10:25:57.736Z,14.33
2019-03-30T10:28:22.254Z,12.23
2019-03-30T10:30:46.687Z,11.47
2019-03-30T10:33:11.718Z,12.10
2019-03-30T10:35:36.343Z,12.30
2019-03-30T10:38:00.769Z,10.73
2019-03-30T10:40:25.203Z,11.67
2019-03-30T10:42:49.621Z,14.43
2019-03-30T10:45:14.297Z,12.37
2019-03-30T10:47:38.707Z,11.53
2019-03-30T10:50:03.995Z,15.27
2019-03-30T10:52:28.414Z,12.50
2019-03-30T10:54:53.384Z,12.47
2019-03-30T10:57:18.639Z,13.47
2019-03-30T10:59:43.271Z,16.67
2019-03-30T11:02:07.771Z,12.30
2019-03-30T11:04:32.194Z,15.00
2019-03-30T11:06:56.642Z,15.87
2019-03-30T11:09:21.219Z,13.40
2019-03-30T11:11:45.672Z,12.73
2019-03-30T11:14:10.127Z,13.80
2019-03-30T11:16:34.562Z,14.03
2019-03-30T11:18:59.052Z,13.27
2019-03-30T11:21:23.486Z,13.33
2019-03-30T11:23:47.910Z,12.33
2019-03-30T11:26:12.412Z,12.20
2019-03-30T11:28:36.934Z,12.10
2019-03-30T11:31:01.468Z,16.03
2019-03-30T11:33:25.888Z,15.57
2019-03-30T11:35:50.671Z,12.73
2019-03-30T11:38:15.096Z,13.97
2019-03-30T11:40:39.512Z,12.00
2019-03-30T11:43:03.922Z,14.07
2019-03-30T11:45:28.612Z,15.90
2019-03-30T11:47:53.025Z,15.33
2019-03-30T11:50:17.538Z,14.77
2019-03-30T11:52:41.950Z,13.10
2019-03-30T11:55:20.915Z,11.33
2019-03-30T11:57:34.034Z,12.53
2019-03-30T11:59:58.447Z,15.47
2019-03-30T12:02:28.156Z,13.03
2019-03-30T12:04:49.128Z,13.67
2019-03-30T12:07:13.567Z,13.50
2019-03-30T12:09:37.981Z,12.30
2019-03-30T12:12:02.401Z,13.13
2019-03-30T12:14:26.821Z,13.90
2019-03-30T12:16:51.266Z,14.83
2019-03-30T12:19:15.688Z,13.00
2019-03-30T12:21:40.603Z,13.00
2019-03-30T12:24:05.044Z,14.17
2019-03-30T12:26:29.485Z,12.30
2019-03-30T12:28:53.901Z,12.70
2019-03-30T12:31:18.358Z,12.63
2019-03-30T12:33:42.839Z,13.97
2019-03-30T12:36:07.359Z,11.73
2019-03-30T12:38:31.846Z,11.33
2019-03-30T12:40:58.007Z,10.60
2019-03-30T12:43:22.483Z,10.57
2019-03-30T12:45:46.933Z,10.63
2019-03-30T12:48:11.516Z,10.50
2019-03-30T12:50:35.925Z,10.07
2019-03-30T12:53:00.372Z,12.70
2019-03-30T12:55:24.783Z,11.93
2019-03-30T12:57:49.222Z,10.90
2019-03-30T13:00:14.038Z,9.37
2019-03-30T13:02:38.488Z,11.47
2019-03-30T13:05:02.975Z,10.30
2019-03-30T13:07:27.413Z,11.23
2019-03-30T13:09:51.820Z,11.97
2019-03-30T13:12:16.259Z,8.93
2019-03-30T13:14:40.662Z,9.60
2019-03-30T13:17:05.111Z,11.77
2019-03-30T13:19:29.519Z,11.50
2019-03-30T13:21:53.953Z,12.57
2019-03-30T13:24:18.436Z,11.67
2019-03-30T13:26:42.898Z,10.50
2019-03-30T13:29:07.452Z,13.30
2019-03-30T13:31:31.930Z,12.23
2019-03-30T13:33:56.365Z,10.47
2019-03-30T13:36:22.418Z,9.68
2019-03-30T13:38:46.843Z,9.63
2019-03-30T13:41:13.941Z,8.55
2019-03-30T13:43:37.383Z,11.53
2019-03-30T13:46:01.798Z,8.65
2019-03-30T13:48:26.238Z,9.53
2019-03-30T13:50:50.661Z,11.18
2019-03-30T13:53:15.106Z,9.78
2019-03-30T13:55:39.502Z,8.88
2019-03-30T13:58:04.108Z,9.28
2019-03-30T14:00:28.505Z,6.10
2019-03-30T14:02:52.948Z,6.27
2019-03-30T14:05:17.356Z,7.03
2019-03-30T14:07:41.863Z,5.67
2019-03-30T14:10:08.520Z,5.13
2019-03-30T14:12:32.990Z,7.27
2019-03-30T14:14:57.410Z,8.07
2019-03-30T14:17:21.816Z,7.03
2019-03-30T14:19:47.734Z,7.67
2019-03-30T14:22:12.151Z,6.50
2019-03-30T14:24:36.578Z,5.40
2019-03-30T14:27:00.985Z,6.20
2019-03-30T14:29:25.515Z,5.43
2019-03-30T14:31:49.920Z,5.97
2019-03-30T14:34:14.343Z,7.67
2019-03-30T14:36:38.761Z,5.23
2019-03-30T14:39:04.617Z,5.43
2019-03-30T14:41:29.038Z,7.93
2019-03-30T14:43:53.449Z,6.97
2019-03-30T14:46:17.930Z,9.00
2019-03-30T14:48:42.431Z,8.97
2019-03-30T14:51:06.901Z,11.13
2019-03-30T14:53:31.319Z,8.83
2019-03-30T14:55:55.720Z,6.47
2019-03-30T14:58:20.306Z,5.90
2019-03-30T15:00:44.770Z,6.77
2019-03-30T15:03:09.228Z,9.33
2019-03-30T15:05:33.667Z,7.27
2019-03-30T15:07:58.059Z,8.57
2019-03-30T15:10:22.552Z,8.17
2019-03-30T15:12:46.955Z,8.20
2019-03-30T15:15:12.928Z,8.67
2019-03-30T15:17:40.463Z,7.80
2019-03-30T15:20:04.651Z,7.23
2019-03-30T15:22:29.057Z,10.53
2019-03-30T15:24:53.490Z,8.33
2019-03-30T15:27:18.376Z,9.30
2019-03-30T15:29:45.413Z,7.23
2019-03-30T15:32:08.910Z,8.73
2019-03-30T15:34:33.345Z,9.17
2019-03-30T15:36:57.817Z,7.63
2019-03-30T15:39:22.412Z,7.80
2019-03-30T15:41:46.832Z,11.03
2019-03-30T15:44:11.287Z,8.07
2019-03-30T15:46:35.689Z,9.60
2019-03-30T15:49:00.120Z,10.00
2019-03-30T15:51:24.589Z,7.93
2019-03-30T15:53:50.034Z,7.90
2019-03-30T15:56:14.913Z,8.73
2019-03-30T15:58:39.327Z,8.90
2019-03-30T16:01:03.814Z,8.00
2019-03-30T16:03:29.096Z,7.40
2019-03-30T16:05:53.528Z,7.70
2019-03-30T16:08:18.087Z,11.70
2019-03-30T16:10:42.518Z,9.97
2019-03-30T16:13:06.919Z,7.83
2019-03-30T16:15:31.342Z,9.00
2019-03-30T16:17:55.749Z,8.27
2019-03-30T16:20:20.243Z,9.77
2019-03-30T16:22:45.980Z,9.20
2019-03-30T16:25:10.533Z,9.73
2019-03-30T16:27:35.082Z,8.40
2019-03-30T16:29:59.522Z,9.30
2019-03-30T16:32:23.931Z,10.13
2019-03-30T16:34:48.387Z,10.33
2019-03-30T16:37:12.865Z,10.00
2019-03-30T16:39:37.335Z,10.60
2019-03-30T16:42:01.774Z,12.37
2019-03-30T16:44:26.187Z,10.73
2019-03-30T16:46:50.677Z,9.57
2019-03-30T16:49:15.101Z,12.60
2019-03-30T16:51:39.548Z,17.03
2019-03-30T16:54:04.406Z,19.10
2019-03-30T16:56:28.836Z,9.37
2019-03-30T16:58:53.255Z,10.47
2019-03-30T17:01:17.678Z,10.57
2019-03-30T17:03:42.086Z,10.30
2019-03-30T17:06:06.511Z,10.90
2019-03-30T17:08:30.945Z,11.17
2019-03-30T17:10:55.369Z,13.63
2019-03-30T17:13:19.794Z,10.73
2019-03-30T17:15:44.197Z,8.83
2019-03-30T17:18:08.634Z,10.37
2019-03-30T17:20:33.047Z,8.80
2019-03-30T17:22:58.994Z,8.67
2019-03-30T17:25:23.489Z,8.87
2019-03-30T17:27:58.246Z,9.47
2019-03-30T17:30:14.367Z,12.07
2019-03-30T17:32:38.944Z,9.87
2019-03-30T17:35:04.046Z,12.33
2019-03-30T17:37:28.570Z,8.93
2019-03-30T17:39:52.981Z,11.53
2019-03-30T17:42:17.497Z,9.17
2019-03-30T17:44:41.919Z,11.10
2019-03-30T17:47:06.438Z,9.27
2019-03-30T17:49:30.839Z,8.83
2019-03-30T17:51:55.264Z,12.20
2019-03-30T17:54:19.737Z,9.27
2019-03-30T17:56:44.190Z,10.67
2019-03-30T17:59:08.588Z,8.43
2019-03-30T18:01:33.493Z,9.60
2019-03-30T18:03:57.897Z,14.60
2019-03-30T18:06:22.309Z,13.90
2019-03-30T18:08:46.755Z,10.90
2019-03-30T18:11:11.325Z,9.63
2019-03-30T18:13:36.947Z,17.87
2019-03-30T18:16:01.543Z,13.90
2019-03-30T18:18:25.971Z,12.27
2019-03-30T18:20:50.383Z,11.87
2019-03-30T18:23:14.819Z,12.03
2019-03-30T18:25:39.241Z,12.37
2019-03-30T18:28:03.741Z,10.97
2019-03-30T18:30:39.642Z,12.50
2019-03-30T18:33:04.235Z,16.17
2019-03-30T18:35:30.612Z,24.03
2019-03-30T18:37:55.416Z,17.37
2019-03-30T18:40:28.547Z,19.17
2019-03-30T18:42:53.129Z,35.67
2019-03-30T18:45:28.053Z,39.27
2019-03-30T18:47:53.222Z,36.97
2019-03-30T18:50:17.877Z,40.40
2019-03-30T18:52:42.720Z,28.67
2019-03-30T18:55:08.066Z,23.87
2019-03-30T18:57:32.467Z,19.13
2019-03-30T18:59:56.899Z,15.87
2019-03-30T19:02:21.301Z,17.03
2019-03-30T19:04:45.730Z,18.30
2019-03-30T19:07:10.160Z,24.00
2019-03-30T19:09:34.590Z,20.87
2019-03-30T19:11:59.011Z,21.13
2019-03-30T19:14:23.531Z,13.57
2019-03-30T19:16:47.933Z,11.20
2019-03-30T19:19:12.357Z,14.17
2019-03-30T19:21:36.791Z,9.57
2019-03-30T19:24:01.291Z,10.57
2019-03-30T19:26:25.694Z,10.50
2019-03-30T19:28:56.579Z,11.40
2019-03-30T19:31:19.415Z,10.83
2019-03-30T19:33:43.841Z,12.70
2019-03-30T19:36:10.031Z,12.73
2019-03-30T19:38:34.451Z,16.77
2019-03-30T19:40:58.860Z,18.87
2019-03-30T19:43:23.283Z,17.73
2019-03-30T19:45:47.868Z,13.33
2019-03-30T19:48:12.291Z,14.13
2019-03-30T19:50:36.781Z,18.40
2019-03-30T19:53:01.217Z,19.90
2019-03-30T19:55:27.312Z,21.40
2019-03-30T19:57:51.715Z,22.27
2019-03-30T20:00:16.755Z,18.93
2019-03-30T20:02:41.439Z,15.73
2019-03-30T20:05:08.426Z,15.53
2019-03-30T20:07:32.918Z,21.67
2019-03-30T20:09:57.359Z,22.17
2019-03-30T20:12:21.857Z,21.20
2019-03-30T20:14:46.410Z,19.10
2019-03-30T20:17:10.836Z,18.97
2019-03-30T20:19:35.273Z,16.90
2019-03-30T20:21:59.708Z,13.50
2019-03-30T20:24:24.156Z,16.63
2019-03-30T20:26:48.606Z,15.97
2019-03-30T20:29:24.658Z,15.60
2019-03-30T20:31:39.171Z,14.47
2019-03-30T20:34:03.660Z,12.03
2019-03-30T20:36:28.085Z,11.30
2019-03-30T20:38:52.492Z,10.67
2019-03-30T20:41:16.926Z,11.50
2019-03-30T20:43:41.339Z,12.43
2019-03-30T20:46:05.770Z,12.53
2019-03-30T20:48:30.183Z,11.83
2019-03-30T20:50:54.596Z,11.53
2019-03-30T20:53:19.004Z,11.70
2019-03-30T20:55:43.455Z,13.07
2019-03-30T20:58:07.989Z,11.80
2019-03-30T21:00:32.495Z,12.50
2019-03-30T21:02:56.975Z,14.73
2019-03-30T21:05:21.409Z,12.77
2019-03-30T21:07:45.836Z,12.20
2019-03-30T21:10:10.821Z,12.17
2019-03-30T21:12:35.237Z,17.00
2019-03-30T21:14:59.691Z,12.50
2019-03-30T21:17:24.117Z,12.90
2019-03-30T21:19:48.605Z,13.37
2019-03-30T21:22:13.040Z,13.83
2019-03-30T21:24:37.447Z,13.67
2019-03-30T21:27:01.955Z,15.07
2019-03-30T21:29:26.378Z,12.93
2019-03-30T21:31:50.817Z,13.43
2019-03-30T21:34:15.214Z,13.63
2019-03-30T21:36:39.637Z,18.03
2019-03-30T21:39:05.998Z,15.10
2019-03-30T21:41:30.436Z,14.53
2019-03-30T21:43:54.852Z,14.83
2019-03-30T21:46:19.306Z,15.50
2019-03-30T21:48:43.712Z,15.17
2019-03-30T21:51:08.172Z,17.47
2019-03-30T21:53:32.587Z,15.23
2019-03-30T21:55:57.032Z,16.37
2019-03-30T21:58:21.461Z,17.03
2019-03-30T22:00:45.929Z,16.33
2019-03-30T22:03:10.729Z,16.70
2019-03-30T22:05:35.791Z,15.93
2019-03-30T22:08:00.771Z,15.73
2019-03-30T22:10:27.303Z,15.77
2019-03-30T22:12:51.730Z,16.63
2019-03-30T22:15:19.182Z,14.80
2019-03-30T22:17:43.620Z,16.87
2019-03-30T22:20:08.127Z,18.07
2019-03-30T22:22:32.564Z,17.03
2019-03-30T22:24:56.988Z,15.93
2019-03-30T22:27:21.435Z,17.53
2019-03-30T22:29:45.873Z,16.60
2019-03-30T22:32:10.321Z,21.27
2019-03-30T22:34:34.811Z,22.27
2019-03-30T22:36:59.270Z,23.17
2019-03-30T22:39:23.706Z,22.90
2019-03-30T22:41:48.139Z,25.67
2019-03-30T22:44:12.614Z,24.93
2019-03-30T22:46:37.014Z,26.07
2019-03-30T22:49:01.546Z,27.00
2019-03-30T22:51:25.989Z,26.07
2019-03-30T22:53:50.437Z,24.30
2019-03-30T22:56:14.932Z,27.77
2019-03-30T22:58:39.582Z,27.30
2019-03-30T23:01:05.781Z,28.73
2019-03-30T23:03:30.271Z,31.20
2019-03-30T23:05:54.834Z,32.93
2019-03-30T23:08:19.339Z,32.93
2019-03-30T23:10:43.793Z,31.93
2019-03-30T23:13:08.326Z,33.73
2019-03-30T23:15:32.954Z,32.70
2019-03-30T23:17:57.551Z,36.67
2019-03-30T23:20:22.044Z,37.47
2019-03-30T23:22:46.477Z,40.00
2019-03-30T23:25:10.990Z,39.53
2019-03-30T23:27:35.477Z,38.97
2019-03-30T23:29:59.906Z,40.23
2019-03-30T23:32:24.320Z,42.70
2019-03-30T23:34:48.765Z,39.30
2019-03-30T23:37:13.197Z,36.83
2019-03-30T23:39:37.632Z,38.97
2019-03-30T23:42:02.044Z,40.47
2019-03-30T23:44:26.551Z,41.80
2019-03-30T23:46:50.970Z,43.20
2019-03-30T23:49:15.421Z,45.23
2019-03-30T23:51:39.832Z,45.17
2019-03-30T23:54:04.420Z,44.67
2019-03-30T23:56:28.920Z,47.70
2019-03-30T23:58:53.498Z,46.87
